createdAt,value
2022-09-30T00:02:01.754Z,19.76
2022-09-30T00:05:07.316Z,19.82
2022-09-30T00:08:14.044Z,19.70
2022-09-30T00:11:26.851Z,19.86
2022-09-30T00:14:34.412Z,19.70
2022-09-30T00:17:40.941Z,19.54
2022-09-30T00:20:46.651Z,19.46
2022-09-30T00:23:52.441Z,19.45
2022-09-30T00:26:58.368Z,19.52
2022-09-30T00:30:05.042Z,19.51
2022-09-30T00:33:11.705Z,19.49
2022-09-30T00:36:18.014Z,19.46
2022-09-30T00:39:23.703Z,19.52
2022-09-30T00:42:33.022Z,19.64
2022-09-30T00:45:38.292Z,19.76
2022-09-30T00:48:48.053Z,19.78
2022-09-30T00:51:59.976Z,19.82
2022-09-30T00:55:05.694Z,19.83
2022-09-30T00:58:11.470Z,19.90
2022-09-30T01:01:16.853Z,19.92
2022-09-30T01:04:33.566Z,20.04
2022-09-30T01:07:39.654Z,20.07
2022-09-30T01:10:45.723Z,20.07
2022-09-30T01:13:50.975Z,20.12
2022-09-30T01:17:21.161Z,20.05
2022-09-30T01:21:03.118Z,20.10
2022-09-30T01:24:16.541Z,20.09
2022-09-30T01:27:33.301Z,20.15
2022-09-30T01:30:57.697Z,20.22
2022-09-30T01:34:20.763Z,20.22
2022-09-30T01:37:35.581Z,20.17
2022-09-30T01:41:25.803Z,20.24
2022-09-30T01:44:53.011Z,20.34
2022-09-30T01:48:07.908Z,20.40
2022-09-30T01:51:24.662Z,20.32
2022-09-30T01:54:37.177Z,20.36
2022-09-30T01:57:49.820Z,20.44
2022-09-30T02:00:56.945Z,20.54
2022-09-30T02:04:12.752Z,20.49
2022-09-30T02:07:29.338Z,20.53
2022-09-30T02:10:52.160Z,20.65
2022-09-30T02:14:14.167Z,20.75
2022-09-30T02:17:35.533Z,20.80
2022-09-30T02:20:43.980Z,20.86
2022-09-30T02:23:53.332Z,20.92
2022-09-30T02:26:54.131Z,20.76
2022-09-30T02:29:52.592Z,20.73
2022-09-30T02:33:07.125Z,20.62
2022-09-30T02:36:16.957Z,20.72
2022-09-30T02:39:19.493Z,20.88
2022-09-30T02:42:37.570Z,20.96
2022-09-30T02:45:42.820Z,20.93
2022-09-30T02:49:35.183Z,20.96
2022-09-30T02:53:05.910Z,21.04
2022-09-30T02:56:21.709Z,20.92
2022-09-30T02:59:20.101Z,21.03
2022-09-30T03:02:25.836Z,21.06
2022-09-30T03:05:32.287Z,21.08
2022-09-30T03:08:38.730Z,21.04
2022-09-30T03:11:45.700Z,21.03
2022-09-30T03:14:50.434Z,21.06
2022-09-30T03:18:19.345Z,21.00
2022-09-30T03:21:55.698Z,21.08
2022-09-30T03:25:27.880Z,21.06
2022-09-30T03:29:10.224Z,20.91
2022-09-30T03:32:32.156Z,21.04
2022-09-30T03:35:53.756Z,21.06
2022-09-30T03:39:31.900Z,20.96
2022-09-30T03:42:56.959Z,21.03
2022-09-30T03:46:08.070Z,20.97
2022-09-30T03:49:18.761Z,20.83
2022-09-30T03:52:25.358Z,20.93
2022-09-30T03:55:30.845Z,21.12
2022-09-30T03:58:36.746Z,21.17
2022-09-30T04:01:46.302Z,21.28
2022-09-30T04:04:52.262Z,21.32
2022-09-30T04:07:59.690Z,21.37
2022-09-30T04:11:04.907Z,21.51
2022-09-30T04:14:10.533Z,21.55
2022-09-30T04:17:17.952Z,21.63
2022-09-30T04:20:24.414Z,21.58
2022-09-30T04:23:23.747Z,21.71
2022-09-30T04:26:32.359Z,21.73
2022-09-30T04:29:38.229Z,21.89
2022-09-30T04:32:49.552Z,21.86
2022-09-30T04:35:56.043Z,21.88
2022-09-30T04:39:00.720Z,21.91
2022-09-30T04:42:05.842Z,21.85
2022-09-30T04:45:12.520Z,21.84
2022-09-30T04:48:18.873Z,21.86
2022-09-30T04:51:24.163Z,22.03
2022-09-30T04:54:28.460Z,22.05
2022-09-30T04:57:34.568Z,21.99
2022-09-30T05:00:40.261Z,21.95
2022-09-30T05:03:46.249Z,21.85
2022-09-30T05:06:51.790Z,21.98
2022-09-30T05:09:57.409Z,22.05
2022-09-30T05:13:02.772Z,22.09
2022-09-30T05:16:08.310Z,22.12
2022-09-30T05:19:15.571Z,22.24
2022-09-30T05:22:21.908Z,22.24
2022-09-30T05:25:27.122Z,22.16
2022-09-30T05:28:33.032Z,22.11
2022-09-30T06:54:13.277Z,17.22
2022-09-30T06:57:18.972Z,17.18
2022-09-30T07:00:26.682Z,17.15
2022-09-30T07:03:39.173Z,17.07
2022-09-30T07:06:45.294Z,17.26
2022-09-30T07:09:50.246Z,17.22
2022-09-30T07:12:55.927Z,17.22
2022-09-30T07:16:03.257Z,17.36
2022-09-30T07:19:11.247Z,17.49
2022-09-30T07:22:34.593Z,17.57
2022-09-30T07:25:39.938Z,17.63
2022-09-30T07:28:48.746Z,17.72
2022-09-30T07:31:53.762Z,17.86
2022-09-30T07:34:59.877Z,18.11
2022-09-30T07:38:07.987Z,18.29
2022-09-30T07:41:16.863Z,18.30
2022-09-30T07:44:28.150Z,18.34
2022-09-30T07:47:33.187Z,18.35
2022-09-30T07:50:39.178Z,18.38
2022-09-30T07:53:45.831Z,18.55
2022-09-30T08:00:04.878Z,18.88
2022-09-30T08:03:07.327Z,18.94
2022-09-30T08:06:14.289Z,19.05
2022-09-30T08:09:20.692Z,19.07
2022-09-30T08:12:27.944Z,19.19
2022-09-30T08:15:33.808Z,19.14
2022-09-30T08:18:42.196Z,19.27
2022-09-30T08:21:49.745Z,19.44
2022-09-30T08:24:55.591Z,19.51
2022-09-30T08:28:01.168Z,19.68
2022-09-30T08:31:06.918Z,19.76
2022-09-30T08:34:15.537Z,19.74
2022-09-30T08:37:20.577Z,20.13
2022-09-30T08:40:33.467Z,20.21
2022-09-30T08:43:55.022Z,20.29
2022-09-30T08:47:50.252Z,20.35
2022-09-30T08:51:41.225Z,20.57
2022-09-30T08:54:50.536Z,20.79
2022-09-30T08:57:59.637Z,20.68
2022-09-30T09:01:09.212Z,20.71
2022-09-30T09:04:16.807Z,20.59
2022-09-30T09:07:54.455Z,20.48
2022-09-30T09:11:03.074Z,20.38
2022-09-30T09:14:18.022Z,20.26
2022-09-30T09:18:22.463Z,20.30
2022-09-30T09:21:11.468Z,20.23
2022-09-30T09:23:59.239Z,20.22
2022-09-30T09:26:51.764Z,20.20
2022-09-30T09:30:09.266Z,20.11
2022-09-30T09:33:36.429Z,20.05
2022-09-30T09:36:49.773Z,20.13
2022-09-30T09:40:14.644Z,20.19
2022-09-30T09:43:31.119Z,20.15
2022-09-30T09:46:50.083Z,20.05
2022-09-30T09:50:02.398Z,20.08
2022-09-30T09:53:34.306Z,20.06
2022-09-30T09:56:44.240Z,20.09
2022-09-30T09:59:48.329Z,20.23
2022-09-30T10:02:54.317Z,20.24
2022-09-30T10:06:02.795Z,20.11
2022-09-30T10:09:11.295Z,20.05
2022-09-30T10:12:27.161Z,20.08
2022-09-30T10:15:37.082Z,20.10
2022-09-30T10:18:50.404Z,20.14
2022-09-30T10:21:57.446Z,20.21
2022-09-30T10:25:03.111Z,20.26
2022-09-30T10:28:18.065Z,20.15
2022-09-30T10:31:29.070Z,20.12
2022-09-30T10:34:54.249Z,20.02
2022-09-30T10:38:07.249Z,19.99
2022-09-30T10:41:12.964Z,20.16
2022-09-30T10:44:21.667Z,20.21
2022-09-30T10:47:37.402Z,20.14
2022-09-30T10:50:42.056Z,20.17
2022-09-30T10:53:50.262Z,20.28
2022-09-30T10:56:59.999Z,20.29
2022-09-30T11:00:09.316Z,20.36
2022-09-30T11:03:27.142Z,20.29
2022-09-30T11:06:31.644Z,20.25
2022-09-30T11:10:00.837Z,20.44
2022-09-30T11:13:38.509Z,20.49
2022-09-30T11:16:47.871Z,20.34
2022-09-30T11:20:16.154Z,20.57
2022-09-30T11:23:39.546Z,20.79
2022-09-30T11:27:19.742Z,21.04
2022-09-30T11:31:13.446Z,21.28
2022-09-30T11:34:31.282Z,21.39
2022-09-30T11:38:31.615Z,21.73
2022-09-30T11:41:44.233Z,21.84
2022-09-30T11:44:51.245Z,22.07
2022-09-30T11:48:10.691Z,22.24
2022-09-30T11:51:40.811Z,22.28
2022-09-30T11:54:58.646Z,22.40
2022-09-30T11:58:40.448Z,22.29
2022-09-30T12:01:40.125Z,22.39
2022-09-30T12:04:55.098Z,22.41
2022-09-30T12:08:20.484Z,22.56
2022-09-30T12:11:30.864Z,22.49
2022-09-30T12:14:56.797Z,22.36
2022-09-30T12:18:06.442Z,22.47
2022-09-30T12:21:27.081Z,22.33
2022-09-30T12:24:53.530Z,22.14
2022-09-30T12:28:13.092Z,21.99
2022-09-30T12:31:35.093Z,21.98
2022-09-30T12:35:12.980Z,21.86
2022-09-30T12:38:50.762Z,21.85
2022-09-30T12:42:36.039Z,21.83
2022-09-30T12:46:14.731Z,21.78
2022-09-30T12:49:24.802Z,21.72
2022-09-30T12:52:32.588Z,21.64
2022-09-30T12:55:48.619Z,21.64
2022-09-30T12:59:04.272Z,21.68
2022-09-30T13:02:11.125Z,21.61
2022-09-30T13:05:45.744Z,21.52
2022-09-30T13:09:12.191Z,21.42
2022-09-30T13:12:22.860Z,21.30
2022-09-30T13:15:48.183Z,21.21
2022-09-30T13:18:59.348Z,21.09
2022-09-30T13:22:05.364Z,21.08
2022-09-30T13:25:18.182Z,21.01
2022-09-30T13:28:29.977Z,20.90
2022-09-30T13:31:30.284Z,20.91
2022-09-30T13:34:33.991Z,20.99
2022-09-30T13:37:44.942Z,20.90
2022-09-30T13:40:57.487Z,20.85
2022-09-30T13:43:53.529Z,20.77
2022-09-30T13:47:06.417Z,20.75
2022-09-30T13:50:35.077Z,20.77
2022-09-30T13:53:53.797Z,20.78
2022-09-30T13:57:00.084Z,20.65
2022-09-30T14:00:23.805Z,20.63
2022-09-30T14:04:04.707Z,20.73
2022-09-30T14:07:45.158Z,20.81
2022-09-30T14:11:34.858Z,20.95
2022-09-30T14:15:01.010Z,21.02
2022-09-30T14:18:37.860Z,21.05
2022-09-30T14:22:03.787Z,21.00
2022-09-30T14:25:10.261Z,20.97
2022-09-30T14:28:23.614Z,20.89
2022-09-30T14:31:29.204Z,20.95
2022-09-30T14:38:39.341Z,20.85
2022-09-30T14:41:45.143Z,20.72
2022-09-30T14:44:50.186Z,20.65
2022-09-30T14:48:04.254Z,20.57
2022-09-30T14:51:23.601Z,20.79
2022-09-30T14:54:37.099Z,20.63
2022-09-30T14:57:47.126Z,20.57
2022-09-30T15:00:55.944Z,20.46
2022-09-30T15:04:20.571Z,20.37
2022-09-30T15:07:26.750Z,20.33
2022-09-30T15:10:36.816Z,20.36
2022-09-30T15:13:46.874Z,20.14
2022-09-30T15:17:06.061Z,20.21
2022-09-30T15:20:11.095Z,20.20
2022-09-30T15:23:18.538Z,20.01
2022-09-30T15:26:26.043Z,20.05
2022-09-30T15:29:32.667Z,19.93
2022-09-30T15:35:48.161Z,19.82
2022-09-30T15:38:54.570Z,19.77
2022-09-30T15:42:04.256Z,19.85
2022-09-30T15:45:10.117Z,19.74
2022-09-30T15:48:25.968Z,19.69
2022-09-30T15:51:55.317Z,19.55
2022-09-30T15:55:02.178Z,19.36
2022-09-30T15:58:09.750Z,19.40
2022-09-30T16:01:32.294Z,19.40
2022-09-30T16:04:35.909Z,19.35
2022-09-30T16:07:46.150Z,19.26
2022-09-30T16:10:54.092Z,19.26
2022-09-30T16:13:54.529Z,19.23
2022-09-30T16:17:08.563Z,19.11
2022-09-30T16:20:17.384Z,19.07
2022-09-30T16:23:27.778Z,19.04
2022-09-30T16:26:36.995Z,19.22
2022-09-30T16:29:43.601Z,19.17
2022-09-30T16:32:55.103Z,19.07
2022-09-30T16:36:04.388Z,19.10
2022-09-30T16:39:11.621Z,18.93
2022-09-30T16:42:17.492Z,18.90
2022-09-30T16:45:27.512Z,18.89
2022-09-30T16:48:33.672Z,18.94
2022-09-30T16:51:43.037Z,18.90
2022-09-30T16:54:50.773Z,18.84
2022-09-30T16:57:57.453Z,18.83
2022-09-30T17:01:06.240Z,18.91
2022-09-30T17:04:16.559Z,18.78
2022-09-30T17:07:24.864Z,18.91
2022-09-30T17:10:42.968Z,18.85
2022-09-30T17:13:49.799Z,18.77
2022-09-30T17:16:59.124Z,18.68
2022-09-30T17:20:06.733Z,18.72
2022-09-30T17:23:14.009Z,18.74
2022-09-30T17:26:14.803Z,18.71
2022-09-30T17:29:31.951Z,18.68
2022-09-30T17:32:30.710Z,18.70
2022-09-30T17:35:39.862Z,18.61
2022-09-30T17:38:46.494Z,18.62
2022-09-30T17:42:10.923Z,18.66
2022-09-30T17:45:19.064Z,18.85
2022-09-30T17:48:18.798Z,18.67
2022-09-30T17:51:15.978Z,18.58
2022-09-30T17:54:22.830Z,18.55
2022-09-30T17:57:38.010Z,18.62
2022-09-30T18:00:46.262Z,18.58
2022-09-30T18:03:53.204Z,18.60
2022-09-30T18:06:59.733Z,18.48
2022-09-30T18:10:13.072Z,18.39
2022-09-30T18:13:14.448Z,18.35
2022-09-30T18:16:23.099Z,18.25
2022-09-30T18:19:30.532Z,18.24
2022-09-30T18:22:37.655Z,18.24
2022-09-30T18:25:39.738Z,18.20
2022-09-30T18:28:33.810Z,18.19
2022-09-30T18:31:44.392Z,18.06
2022-09-30T18:34:54.941Z,17.96
2022-09-30T18:38:03.751Z,17.97
2022-09-30T18:41:11.804Z,17.86
2022-09-30T18:44:20.490Z,17.75
2022-09-30T18:47:29.539Z,17.59
2022-09-30T18:50:36.505Z,17.68
2022-09-30T18:53:45.444Z,17.55
2022-09-30T18:56:57.128Z,17.66
2022-09-30T19:00:04.558Z,17.72
2022-09-30T19:03:13.737Z,17.61
2022-09-30T19:06:23.497Z,17.57
2022-09-30T19:09:32.415Z,17.61
2022-09-30T19:12:40.038Z,17.66
2022-09-30T19:15:42.743Z,17.63
2022-09-30T19:18:36.741Z,17.77
2022-09-30T19:21:44.338Z,17.67
2022-09-30T19:24:54.093Z,17.70
2022-09-30T19:28:04.123Z,17.70
2022-09-30T19:31:14.618Z,17.57
2022-09-30T19:34:31.900Z,17.62
2022-09-30T19:37:31.492Z,17.48
2022-09-30T19:40:39.701Z,17.41
2022-09-30T19:43:48.766Z,17.37
2022-09-30T19:46:55.763Z,17.42
2022-09-30T19:50:06.100Z,17.27
2022-09-30T19:53:25.533Z,17.32
2022-09-30T19:56:31.330Z,17.41
2022-09-30T19:59:39.535Z,17.25
2022-09-30T20:02:46.830Z,17.07
2022-09-30T20:05:54.764Z,17.16
2022-09-30T20:09:11.125Z,17.05
2022-09-30T20:12:18.337Z,17.03
2022-09-30T20:15:46.346Z,16.92
2022-09-30T20:18:53.090Z,16.96
2022-09-30T20:22:01.398Z,16.88
2022-09-30T20:25:07.718Z,16.69
2022-09-30T20:28:14.405Z,16.77
2022-09-30T20:31:24.779Z,16.80
2022-09-30T20:34:33.537Z,16.64
2022-09-30T20:37:38.722Z,16.60
2022-09-30T20:40:47.474Z,16.57
2022-09-30T20:43:55.603Z,16.59
2022-09-30T20:47:02.136Z,16.55
2022-09-30T20:50:09.877Z,16.52
2022-09-30T20:53:20.927Z,16.52
2022-09-30T20:56:44.117Z,16.39
2022-09-30T20:59:39.389Z,16.35
2022-09-30T21:02:45.518Z,16.40
2022-09-30T21:05:51.763Z,16.31
2022-09-30T21:08:58.593Z,16.36
2022-09-30T21:12:09.625Z,16.34
2022-09-30T21:15:10.872Z,16.33
2022-09-30T21:18:16.223Z,16.38
2022-09-30T21:21:24.096Z,16.21
2022-09-30T21:24:32.030Z,16.13
2022-09-30T21:27:38.536Z,16.20
2022-09-30T21:30:46.211Z,16.22
2022-09-30T21:33:53.013Z,16.21
2022-09-30T21:36:58.960Z,16.18
2022-09-30T21:40:05.110Z,16.23
2022-09-30T21:43:11.229Z,16.20
2022-09-30T21:46:22.865Z,16.21
2022-09-30T21:49:37.925Z,16.10
2022-09-30T21:52:46.054Z,15.98
2022-09-30T21:55:52.411Z,16.07
2022-09-30T21:58:58.444Z,16.14
2022-09-30T22:02:05.144Z,16.18
2022-09-30T22:05:13.676Z,16.09
2022-09-30T22:08:20.190Z,16.04
2022-09-30T22:11:31.727Z,16.10
2022-09-30T22:14:38.114Z,15.95
2022-09-30T22:17:43.818Z,16.05
2022-09-30T22:20:49.599Z,16.08
2022-09-30T22:23:56.603Z,16.02
2022-09-30T22:27:04.101Z,16.00
2022-09-30T22:30:09.561Z,15.90
2022-09-30T22:33:33.984Z,15.83
2022-09-30T22:36:56.978Z,15.78
2022-09-30T22:40:04.766Z,15.77
2022-09-30T22:43:13.354Z,15.67
2022-09-30T22:46:21.738Z,15.60
2022-09-30T22:49:27.223Z,15.78
2022-09-30T22:52:33.137Z,15.75
2022-09-30T22:55:40.165Z,15.82
2022-09-30T22:58:47.301Z,15.74
2022-09-30T23:01:52.895Z,15.53
2022-09-30T23:04:58.730Z,15.58
2022-09-30T23:08:04.099Z,15.45
2022-09-30T23:11:09.584Z,15.33
2022-09-30T23:14:16.540Z,15.37
2022-09-30T23:17:23.000Z,15.30
2022-09-30T23:20:28.863Z,15.41
2022-09-30T23:23:35.442Z,15.37
2022-09-30T23:26:35.481Z,15.32
2022-09-30T23:29:28.086Z,15.32
2022-09-30T23:32:33.699Z,15.22
2022-09-30T23:35:40.269Z,15.21
2022-09-30T23:38:39.771Z,15.12
2022-09-30T23:41:26.514Z,15.11
2022-09-30T23:44:18.977Z,15.04
2022-09-30T23:47:27.030Z,15.00
2022-09-30T23:50:33.307Z,15.04
2022-09-30T23:53:39.100Z,15.03
2022-09-30T23:56:37.813Z,15.08
2022-09-30T23:59:38.134Z,15.15
